Time;durP1;ratioP1;P1;durP2;ratioP2;P2;SDS_P1;SDS_P2;PMS_P1;PMS_P2;Temp;Humidity;BMP_temperature;BMP_pressure;BME280_temperature;BME280_humidity;BME280_pressure;Samples;Min_cycle;Max_cycle;Signal;HPM_P1;HPM_P2
2023/08/13 00:01:15;;;;;;;13.13;6.20;;;;;17.30;101191.00;;;;5031813;28;20230;-67
2023/08/13 00:04:01;;;;;;;11.93;6.53;;;;;17.30;101191.00;;;;5022216;28;20299;-66
2023/08/13 00:06:48;;;;;;;10.90;5.83;;;;;17.30;101185.00;;;;5024070;28;20226;-67
2023/08/13 00:09:35;;;;;;;10.17;6.50;;;;;17.30;101177.00;;;;5034271;28;20272;-66
2023/08/13 00:12:21;;;;;;;12.73;6.50;;;;;17.30;101190.00;;;;5030153;28;20287;-66
2023/08/13 00:15:11;;;;;;;16.47;6.13;;;;;17.30;101186.00;;;;5034122;28;20241;-67
2023/08/13 00:17:58;;;;;;;10.33;6.87;;;;;17.20;101186.00;;;;5021815;28;20230;-67
2023/08/13 00:20:45;;;;;;;10.57;6.40;;;;;17.20;101183.00;;;;5037258;28;20240;-67
2023/08/13 00:23:34;;;;;;;11.70;6.63;;;;;17.20;101186.00;;;;5042181;28;20376;-66
2023/08/13 00:26:20;;;;;;;8.63;6.23;;;;;17.20;101187.00;;;;5041469;28;20364;-66
2023/08/13 00:29:09;;;;;;;10.93;6.80;;;;;17.10;101188.00;;;;5031491;28;20323;-67
2023/08/13 00:31:57;;;;;;;11.47;6.37;;;;;17.20;101195.00;;;;5044775;28;20251;-67
2023/08/13 00:34:44;;;;;;;12.77;6.97;;;;;17.10;101194.00;;;;5046866;28;20348;-67
2023/08/13 00:37:30;;;;;;;13.77;7.10;;;;;17.10;101192.00;;;;5046799;28;20232;-67
2023/08/13 00:40:17;;;;;;;12.23;6.77;;;;;17.10;101205.00;;;;5040818;28;20252;-66
2023/08/13 00:43:04;;;;;;;9.57;6.43;;;;;17.10;101193.00;;;;5041376;28;20375;-66
2023/08/13 00:45:50;;;;;;;12.93;7.10;;;;;17.10;101199.00;;;;5041711;28;20654;-66
2023/08/13 00:48:40;;;;;;;9.83;7.00;;;;;17.10;101204.00;;;;5044318;28;20233;-67
2023/08/13 00:51:27;;;;;;;11.63;6.80;;;;;17.10;101203.00;;;;5039016;28;20229;-67
2023/08/13 00:54:15;;;;;;;10.43;6.73;;;;;17.00;101205.00;;;;5038256;28;20260;-67
2023/08/13 00:57:03;;;;;;;15.57;7.27;;;;;17.00;101206.00;;;;5038551;28;20244;-66
2023/08/13 00:59:51;;;;;;;8.43;7.13;;;;;17.00;101198.00;;;;5045995;28;20310;-67
2023/08/13 01:02:38;;;;;;;8.93;6.77;;;;;17.00;101211.00;;;;5045857;28;20248;-67
2023/08/13 01:05:37;;;;;;;11.67;7.13;;;;;17.00;101208.00;;;;5039167;28;20733;-66
2023/08/13 01:08:32;;;;;;;11.00;7.77;;;;;16.90;101210.00;;;;5044768;28;20225;-67
2023/08/13 01:11:24;;;;;;;9.27;7.30;;;;;16.90;101210.00;;;;5041911;28;20733;-67
2023/08/13 01:14:17;;;;;;;12.80;7.10;;;;;16.90;101215.00;;;;5044705;28;20257;-67
2023/08/13 01:17:07;;;;;;;14.13;7.07;;;;;16.80;101210.00;;;;5045067;28;20249;-66
2023/08/13 01:19:53;;;;;;;13.47;7.20;;;;;16.80;101212.00;;;;5038032;28;20645;-66
2023/08/13 01:22:46;;;;;;;12.43;6.87;;;;;16.80;101215.00;;;;5045896;28;20249;-67
2023/08/13 01:25:33;;;;;;;14.10;6.90;;;;;16.70;101220.00;;;;5033504;28;20796;-67
2023/08/13 01:28:27;;;;;;;10.23;7.07;;;;;16.80;101216.00;;;;5030968;28;20226;-66
2023/08/13 01:31:23;;;;;;;9.43;6.77;;;;;16.70;101214.00;;;;5028618;28;20236;-66
2023/08/13 01:34:11;;;;;;;11.47;6.53;;;;;16.70;101219.00;;;;5023020;28;20225;-66
2023/08/13 01:36:58;;;;;;;10.13;6.63;;;;;16.70;101213.00;;;;5029076;28;20832;-67
2023/08/13 01:39:46;;;;;;;13.10;6.33;;;;;16.70;101205.00;;;;5029854;28;20297;-67
2023/08/13 01:42:33;;;;;;;10.20;6.67;;;;;16.70;101208.00;;;;5034021;28;20299;-67
2023/08/13 01:45:19;;;;;;;8.40;6.93;;;;;16.70;101205.00;;;;5022689;28;20232;-67
2023/08/13 01:48:07;;;;;;;10.97;6.70;;;;;16.60;101216.00;;;;5038093;28;20233;-67
2023/08/13 01:50:54;;;;;;;9.67;6.93;;;;;16.60;101217.00;;;;5029057;28;20319;-66
2023/08/13 01:53:40;;;;;;;14.00;6.83;;;;;16.50;101220.00;;;;5032885;28;20924;-67
2023/08/13 01:56:28;;;;;;;14.73;6.13;;;;;16.50;101218.00;;;;5018069;28;20220;-67
2023/08/13 01:59:15;;;;;;;11.80;6.47;;;;;16.50;101222.00;;;;5028133;28;20228;-67
2023/08/13 02:02:01;;;;;;;9.07;5.90;;;;;16.50;101219.00;;;;5033261;28;20630;-67
2023/08/13 02:04:48;;;;;;;11.40;6.70;;;;;16.40;101231.00;;;;5033242;28;20760;-66
2023/08/13 02:07:34;;;;;;;8.67;6.27;;;;;16.40;101222.00;;;;5019562;28;20259;-66
2023/08/13 02:10:21;;;;;;;14.43;6.27;;;;;16.40;101217.00;;;;5030215;28;20311;-66
2023/08/13 02:13:08;;;;;;;10.50;6.17;;;;;16.40;101222.00;;;;5027388;28;20237;-65
2023/08/13 02:15:55;;;;;;;11.17;6.20;;;;;16.30;101226.00;;;;5024687;28;20233;-66
2023/08/13 02:18:41;;;;;;;6.93;5.77;;;;;16.30;101216.00;;;;5019257;28;20265;-68
2023/08/13 02:21:28;;;;;;;15.97;6.43;;;;;16.30;101219.00;;;;5028648;28;20226;-67
2023/08/13 02:24:14;;;;;;;10.27;6.10;;;;;16.30;101216.00;;;;5022178;28;20634;-67
2023/08/13 02:27:00;;;;;;;10.37;6.47;;;;;16.20;101221.00;;;;5020447;28;20749;-66
2023/08/13 02:29:48;;;;;;;9.33;5.50;;;;;16.20;101209.00;;;;5024169;28;20253;-66
2023/08/13 02:32:35;;;;;;;9.33;6.10;;;;;16.10;101218.00;;;;5016631;28;20233;-67
2023/08/13 02:35:21;;;;;;;6.70;5.30;;;;;16.20;101212.00;;;;5022557;28;20692;-67
2023/08/13 02:38:08;;;;;;;10.57;5.63;;;;;16.20;101218.00;;;;5013455;28;20237;-65
2023/08/13 02:40:55;;;;;;;13.07;5.80;;;;;16.10;101213.00;;;;5025580;28;20237;-67
2023/08/13 02:43:51;;;;;;;9.03;5.93;;;;;16.10;101207.00;;;;5021652;28;20305;-67
2023/08/13 02:46:39;;;;;;;12.97;5.60;;;;;16.10;101213.00;;;;5025474;28;20244;-67
2023/08/13 02:49:26;;;;;;;8.73;5.90;;;;;16.00;101221.00;;;;5018347;28;20228;-67
2023/08/13 02:52:12;;;;;;;7.00;4.90;;;;;16.00;101215.00;;;;5023886;28;20293;-67
2023/08/13 02:54:59;;;;;;;8.67;5.13;;;;;16.00;101224.00;;;;5026211;28;20233;-67
2023/08/13 02:57:45;;;;;;;8.37;5.30;;;;;16.00;101217.00;;;;5033698;28;20321;-66
2023/08/13 03:00:52;;;;;;;10.27;5.40;;;;;15.90;101218.00;;;;5029320;28;20233;-67
2023/08/13 03:03:40;;;;;;;10.57;5.10;;;;;15.90;101220.00;;;;5027985;28;20654;-68
2023/08/13 03:06:38;;;;;;;8.30;5.33;;;;;15.90;101212.00;;;;5028518;28;20621;-67
2023/08/13 03:09:24;;;;;;;11.63;5.50;;;;;15.90;101214.00;;;;5018798;28;20260;-67
2023/08/13 03:12:11;;;;;;;10.33;6.13;;;;;15.90;101215.00;;;;5011955;28;20244;-67
2023/08/13 03:14:57;;;;;;;10.40;5.30;;;;;15.90;101211.00;;;;5021329;28;20229;-67
2023/08/13 03:17:43;;;;;;;11.47;5.33;;;;;15.80;101217.00;;;;5018681;28;20349;-66
2023/08/13 03:20:31;;;;;;;11.63;5.27;;;;;15.80;101208.00;;;;5017712;28;20222;-66
2023/08/13 03:23:18;;;;;;;10.93;5.53;;;;;15.70;101206.00;;;;5025433;28;20225;-67
2023/08/13 03:26:04;;;;;;;8.03;4.63;;;;;15.70;101208.00;;;;5017143;28;20229;-67
2023/08/13 03:28:51;;;;;;;6.47;4.53;;;;;15.70;101220.00;;;;5040745;28;20333;-67
2023/08/13 03:31:37;;;;;;;10.47;5.20;;;;;15.60;101202.00;;;;5039487;28;20237;-66
2023/08/13 03:34:23;;;;;;;11.30;5.40;;;;;15.60;101204.00;;;;5029621;28;20228;-67
2023/08/13 03:37:11;;;;;;;9.47;4.73;;;;;15.60;101196.00;;;;5021718;28;20244;-66
2023/08/13 03:39:58;;;;;;;11.10;5.20;;;;;15.50;101206.00;;;;5038743;28;20241;-67
2023/08/13 03:42:44;;;;;;;6.23;4.40;;;;;15.50;101197.00;;;;5027797;28;20232;-67
2023/08/13 03:45:31;;;;;;;8.33;4.77;;;;;15.50;101208.00;;;;5026536;28;20437;-67
2023/08/13 03:48:17;;;;;;;11.37;4.50;;;;;15.50;101201.00;;;;5024242;28;20236;-67
2023/08/13 03:51:04;;;;;;;7.73;4.93;;;;;15.40;101205.00;;;;5025097;28;20344;-67
2023/08/13 03:53:52;;;;;;;8.17;4.80;;;;;15.40;101214.00;;;;5019749;28;20239;-66
2023/08/13 03:56:38;;;;;;;12.33;4.37;;;;;15.40;101211.00;;;;5021388;28;20726;-66
2023/08/13 03:59:25;;;;;;;7.27;4.63;;;;;15.40;101219.00;;;;5022990;28;20222;-66
2023/08/13 04:02:11;;;;;;;6.40;4.20;;;;;15.40;101232.00;;;;5024696;28;20241;-67
2023/08/13 04:04:58;;;;;;;9.27;4.57;;;;;15.30;101218.00;;;;5023885;28;20232;-66
2023/08/13 04:07:44;;;;;;;10.83;4.13;;;;;15.30;101220.00;;;;5022302;28;20764;-68
2023/08/13 04:10:32;;;;;;;9.60;4.30;;;;;15.30;101222.00;;;;5017187;28;20227;-67
2023/08/13 04:13:19;;;;;;;10.87;4.80;;;;;15.30;101218.00;;;;5022280;28;20229;-66
2023/08/13 04:16:05;;;;;;;8.37;4.20;;;;;15.30;101220.00;;;;5015905;28;20266;-67
2023/08/13 04:18:52;;;;;;;11.57;4.60;;;;;15.30;101236.00;;;;5024146;28;20282;-66
2023/08/13 04:21:38;;;;;;;8.77;4.20;;;;;15.30;101222.00;;;;5024671;28;20239;-67
2023/08/13 04:24:25;;;;;;;8.83;4.43;;;;;15.20;101232.00;;;;5023697;28;20758;-67
2023/08/13 04:27:12;;;;;;;5.00;4.03;;;;;15.20;101231.00;;;;5013464;28;20240;-67
2023/08/13 04:29:59;;;;;;;8.10;4.23;;;;;15.30;101231.00;;;;5032548;28;20231;-66
2023/08/13 04:32:53;;;;;;;7.97;4.40;;;;;15.30;101224.00;;;;5024370;28;20790;-67
2023/08/13 04:35:39;;;;;;;11.83;4.60;;;;;15.30;101231.00;;;;5023870;28;20244;-68
2023/08/13 04:38:26;;;;;;;6.90;4.10;;;;;15.30;101221.00;;;;5031929;28;20260;-67
2023/08/13 04:41:12;;;;;;;7.47;4.07;;;;;15.30;101234.00;;;;5022157;28;20240;-66
2023/08/13 04:44:00;;;;;;;7.93;3.93;;;;;15.30;101241.00;;;;5026712;28;20259;-66
2023/08/13 04:46:47;;;;;;;12.40;4.40;;;;;15.40;101233.00;;;;5033323;28;20255;-67
2023/08/13 04:49:33;;;;;;;5.70;3.70;;;;;15.30;101232.00;;;;5024648;28;20304;-67
2023/08/13 04:52:20;;;;;;;10.07;4.07;;;;;15.30;101233.00;;;;5026845;28;20309;-67
2023/08/13 04:55:07;;;;;;;8.63;4.40;;;;;15.40;101233.00;;;;5026909;28;20814;-65
2023/08/13 04:57:53;;;;;;;12.10;4.37;;;;;15.40;101233.00;;;;5021809;28;20234;-66
2023/08/13 05:00:41;;;;;;;7.67;4.07;;;;;15.50;101232.00;;;;5019809;28;20226;-66
2023/08/13 05:03:28;;;;;;;7.73;4.23;;;;;15.50;101228.00;;;;5020994;28;20257;-66
2023/08/13 05:06:14;;;;;;;9.93;4.50;;;;;15.50;101231.00;;;;5031070;28;20238;-66
2023/08/13 05:09:01;;;;;;;6.33;4.10;;;;;15.50;101237.00;;;;5027659;28;20606;-67
2023/08/13 05:11:47;;;;;;;8.27;4.30;;;;;15.60;101225.00;;;;5027337;28;20251;-67
2023/08/13 05:14:33;;;;;;;9.77;4.70;;;;;15.60;101225.00;;;;5019136;28;20234;-66
2023/08/13 05:17:22;;;;;;;6.90;4.17;;;;;15.60;101231.00;;;;5033447;28;20798;-67
2023/08/13 05:20:10;;;;;;;8.40;4.57;;;;;15.70;101241.00;;;;5023651;28;20613;-66
2023/08/13 05:22:56;;;;;;;7.40;4.47;;;;;15.70;101225.00;;;;5026109;28;20229;-67
2023/08/13 05:25:43;;;;;;;10.13;4.30;;;;;15.70;101227.00;;;;5022894;28;20232;-67
2023/08/13 05:28:29;;;;;;;10.27;4.57;;;;;15.80;101238.00;;;;5026247;28;20233;-66
2023/08/13 05:31:16;;;;;;;11.87;4.43;;;;;15.90;101234.00;;;;5020274;28;20647;-66
2023/08/13 05:34:04;;;;;;;7.93;4.47;;;;;15.90;101235.00;;;;5023390;28;21796;-67
2023/08/13 05:36:50;;;;;;;9.30;4.30;;;;;15.90;101229.00;;;;5020988;28;20240;-67
2023/08/13 05:39:36;;;;;;;8.80;4.57;;;;;16.00;101242.00;;;;5026580;28;20359;-67
2023/08/13 05:42:23;;;;;;;7.37;4.10;;;;;16.10;101230.00;;;;5024092;28;20231;-67
2023/08/13 05:45:10;;;;;;;14.63;4.30;;;;;16.20;101224.00;;;;5024225;28;20239;-66
2023/08/13 05:47:57;;;;;;;10.33;4.13;;;;;16.20;101228.00;;;;5019194;28;20306;-67
2023/08/13 05:50:45;;;;;;;11.43;4.70;;;;;16.20;101226.00;;;;5023551;28;20353;-67
2023/08/13 05:53:32;;;;;;;12.40;4.20;;;;;16.30;101226.00;;;;5025132;28;20703;-67
2023/08/13 05:56:18;;;;;;;11.57;4.37;;;;;16.30;101229.00;;;;5025499;28;20352;-66
2023/08/13 05:59:05;;;;;;;6.80;3.97;;;;;16.30;101228.00;;;;5023023;28;20744;-68
2023/08/13 06:01:51;;;;;;;8.17;3.93;;;;;16.30;101237.00;;;;5019501;28;20335;-67
2023/08/13 06:04:38;;;;;;;6.43;4.23;;;;;16.40;101236.00;;;;5025471;28;20561;-66
2023/08/13 06:07:26;;;;;;;9.73;4.00;;;;;16.40;101236.00;;;;5025869;28;20249;-67
2023/08/13 06:10:12;;;;;;;8.07;4.53;;;;;16.50;101228.00;;;;5039224;28;20231;-66
2023/08/13 06:12:59;;;;;;;8.13;4.03;;;;;16.60;101234.00;;;;5026950;28;20346;-67
2023/08/13 06:15:45;;;;;;;8.20;3.87;;;;;16.70;101226.00;;;;5025230;28;20937;-66
2023/08/13 06:18:33;;;;;;;6.97;4.10;;;;;16.70;101224.00;;;;5018511;28;20240;-67
2023/08/13 06:21:20;;;;;;;10.43;4.17;;;;;16.80;101227.00;;;;5031022;28;20231;-67
2023/08/13 06:24:08;;;;;;;9.10;4.37;;;;;16.90;101232.00;;;;5040803;28;20237;-66
2023/08/13 06:26:54;;;;;;;12.20;4.60;;;;;16.90;101235.00;;;;5016779;28;20233;-67
2023/08/13 06:29:40;;;;;;;7.40;3.80;;;;;17.00;101232.00;;;;5010587;28;20237;-67
2023/08/13 06:32:44;;;;;;;8.40;3.77;;;;;17.00;101236.00;;;;5011830;28;20232;-67
2023/08/13 06:35:30;;;;;;;8.00;3.87;;;;;17.20;101235.00;;;;5020671;28;20233;-67
2023/08/13 06:38:18;;;;;;;15.73;4.00;;;;;17.30;101231.00;;;;5018761;28;20726;-67
2023/08/13 06:41:06;;;;;;;8.57;4.00;;;;;17.40;101246.00;;;;5019110;28;20726;-66
2023/08/13 06:43:53;;;;;;;12.23;4.10;;;;;17.60;101248.00;;;;5020608;28;20225;-66
2023/08/13 06:46:39;;;;;;;9.87;3.80;;;;;17.70;101253.00;;;;5011723;28;20232;-66
2023/08/13 06:49:26;;;;;;;6.73;3.50;;;;;17.80;101251.00;;;;5023199;28;20233;-66
2023/08/13 06:52:12;;;;;;;8.23;3.77;;;;;17.90;101254.00;;;;5020327;28;20305;-66
2023/08/13 06:54:59;;;;;;;7.40;3.53;;;;;18.10;101246.00;;;;5020910;28;20364;-67
2023/08/13 06:57:47;;;;;;;12.10;3.30;;;;;18.20;101261.00;;;;5032119;28;20229;-68
2023/08/13 07:00:33;;;;;;;8.47;3.53;;;;;18.40;101259.00;;;;5019299;28;20236;-67
2023/08/13 07:03:25;;;;;;;9.30;3.60;;;;;18.40;101249.00;;;;5041964;28;20260;-66
2023/08/13 07:06:12;;;;;;;6.80;2.67;;;;;18.50;101256.00;;;;5013051;28;20233;-67
2023/08/13 07:08:58;;;;;;;8.50;2.87;;;;;18.60;101250.00;;;;5021984;28;20236;-65
2023/08/13 07:11:44;;;;;;;8.60;3.37;;;;;18.60;101253.00;;;;5023638;28;20228;-67
2023/08/13 07:14:32;;;;;;;8.10;2.90;;;;;18.60;101254.00;;;;5024083;28;20729;-68
2023/08/13 07:17:19;;;;;;;10.67;3.00;;;;;18.80;101255.00;;;;5018460;28;20734;-66
2023/08/13 07:20:09;;;;;;;6.73;3.40;;;;;18.70;101258.00;;;;5016886;28;20248;-67
2023/08/13 07:22:58;;;;;;;8.60;3.40;;;;;18.90;101251.00;;;;5024189;28;20237;-67
2023/08/13 07:25:44;;;;;;;9.77;3.30;;;;;19.00;101253.00;;;;5023261;28;20230;-67
2023/08/13 07:28:34;;;;;;;7.23;3.10;;;;;19.10;101250.00;;;;5031988;28;20291;-64
2023/08/13 07:31:22;;;;;;;6.47;3.00;;;;;19.10;101250.00;;;;5038904;28;20729;-66
2023/08/13 07:34:08;;;;;;;5.90;2.97;;;;;19.20;101248.00;;;;5044594;28;20792;-66
2023/08/13 07:36:55;;;;;;;8.10;3.10;;;;;19.30;101248.00;;;;5040101;28;20221;-66
2023/08/13 07:39:42;;;;;;;5.93;2.80;;;;;19.30;101246.00;;;;5043697;28;20682;-67
2023/08/13 07:42:29;;;;;;;8.43;2.90;;;;;19.40;101245.00;;;;5037937;28;20711;-66
2023/08/13 07:45:15;;;;;;;8.60;3.10;;;;;19.40;101249.00;;;;5042562;28;20241;-67
2023/08/13 07:48:03;;;;;;;8.23;3.97;;;;;19.40;101252.00;;;;5031358;28;20236;-67
2023/08/13 07:50:50;;;;;;;4.90;2.93;;;;;19.40;101248.00;;;;5044090;28;20229;-66
2023/08/13 07:53:37;;;;;;;8.93;3.07;;;;;19.40;101248.00;;;;5042554;28;20229;-67
2023/08/13 07:56:23;;;;;;;5.07;2.53;;;;;19.40;101248.00;;;;5041952;28;20248;-65
2023/08/13 07:59:10;;;;;;;6.57;2.80;;;;;19.50;101252.00;;;;5033950;28;20242;-67
2023/08/13 08:01:56;;;;;;;6.50;2.53;;;;;19.70;101246.00;;;;5033570;28;20249;-64
2023/08/13 08:04:47;;;;;;;9.70;3.03;;;;;19.70;101253.00;;;;5038246;28;20233;-64
2023/08/13 08:07:34;;;;;;;10.63;2.80;;;;;19.70;101244.00;;;;5036927;28;20354;-64
2023/08/13 08:10:20;;;;;;;10.57;2.60;;;;;19.90;101256.00;;;;5043394;28;20236;-67
2023/08/13 08:13:06;;;;;;;6.77;2.40;;;;;20.00;101249.00;;;;5026797;28;20301;-66
2023/08/13 08:15:53;;;;;;;6.57;2.50;;;;;20.10;101237.00;;;;5026573;28;20234;-64
2023/08/13 08:18:40;;;;;;;8.83;2.20;;;;;20.20;101254.00;;;;5024258;28;20239;-63
2023/08/13 08:21:31;;;;;;;5.63;2.33;;;;;20.30;101246.00;;;;5023642;28;20229;-65
2023/08/13 08:24:17;;;;;;;7.23;2.63;;;;;20.40;101239.00;;;;5031465;28;20599;-65
2023/08/13 08:27:05;;;;;;;9.07;2.47;;;;;20.50;101244.00;;;;5024525;28;20270;-66
2023/08/13 08:29:51;;;;;;;5.93;2.30;;;;;20.60;101243.00;;;;5028275;28;20299;-65
2023/08/13 08:32:38;;;;;;;7.47;2.40;;;;;20.70;101245.00;;;;5029999;28;20232;-67
2023/08/13 08:35:25;;;;;;;4.60;2.40;;;;;20.70;101247.00;;;;5027835;28;20248;-66
2023/08/13 08:38:13;;;;;;;8.67;2.40;;;;;20.70;101239.00;;;;5021935;28;20233;-68
2023/08/13 08:41:00;;;;;;;8.97;2.27;;;;;20.70;101236.00;;;;5020635;28;20297;-66
2023/08/13 08:43:47;;;;;;;7.30;2.37;;;;;20.70;101241.00;;;;5017997;28;20724;-65
2023/08/13 08:46:34;;;;;;;6.10;2.40;;;;;20.80;101245.00;;;;5017714;28;20241;-65
2023/08/13 08:49:22;;;;;;;6.90;2.30;;;;;20.90;101234.00;;;;5022856;28;20240;-66
2023/08/13 08:52:09;;;;;;;7.27;2.30;;;;;21.00;101246.00;;;;5026604;28;20299;-66
2023/08/13 08:54:57;;;;;;;7.03;2.30;;;;;21.10;101244.00;;;;5026266;28;20226;-66
2023/08/13 08:57:44;;;;;;;7.00;2.33;;;;;21.20;101247.00;;;;5021537;28;20228;-68
2023/08/13 09:00:30;;;;;;;5.07;2.07;;;;;21.30;101235.00;;;;5034442;28;20235;-66
2023/08/13 09:03:17;;;;;;;7.40;2.37;;;;;21.40;101231.00;;;;5028437;28;20233;-66
2023/08/13 09:06:04;;;;;;;5.50;2.17;;;;;21.50;101233.00;;;;5025838;28;20293;-67
2023/08/13 09:09:06;;;;;;;6.97;2.17;;;;;21.50;101234.00;;;;5020590;28;20240;-67
2023/08/13 09:11:55;;;;;;;7.30;2.00;;;;;21.40;101229.00;;;;5023596;28;20705;-67
2023/08/13 09:14:42;;;;;;;6.07;2.27;;;;;21.30;101219.00;;;;5019864;28;20233;-66
2023/08/13 09:17:30;;;;;;;6.63;2.30;;;;;21.30;101227.00;;;;5031088;28;20483;-66
2023/08/13 09:20:20;;;;;;;7.70;2.23;;;;;21.40;101227.00;;;;5030583;28;20387;-67
2023/08/13 09:23:06;;;;;;;8.30;2.20;;;;;21.40;101233.00;;;;5022943;28;20229;-67
2023/08/13 09:25:53;;;;;;;5.03;2.00;;;;;21.60;101240.00;;;;5023667;28;20230;-63
2023/08/13 09:28:44;;;;;;;7.17;2.27;;;;;21.60;101229.00;;;;5034356;28;20237;-66
2023/08/13 09:31:30;;;;;;;7.37;2.10;;;;;21.80;101228.00;;;;5030499;28;20288;-66
2023/08/13 09:34:18;;;;;;;6.63;2.20;;;;;21.90;101231.00;;;;5025356;28;20229;-67
2023/08/13 09:37:04;;;;;;;4.63;2.00;;;;;22.00;101224.00;;;;5047431;28;20714;-66
2023/08/13 09:39:51;;;;;;;7.20;2.30;;;;;22.10;101217.00;;;;5056354;28;20239;-67
2023/08/13 09:42:38;;;;;;;5.77;2.00;;;;;22.30;101206.00;;;;5026216;28;20325;-66
2023/08/13 09:45:28;;;;;;;6.60;2.20;;;;;22.40;101202.00;;;;5048645;28;20230;-66
2023/08/13 09:48:18;;;;;;;9.93;2.27;;;;;22.60;101206.00;;;;5024584;28;20245;-65
2023/08/13 09:51:05;;;;;;;8.37;2.50;;;;;22.70;101200.00;;;;5027223;28;20237;-67
2023/08/13 09:53:59;;;;;;;4.73;2.30;;;;;22.90;101196.00;;;;5027623;28;20590;-66
2023/08/13 09:56:52;;;;;;;7.43;2.63;;;;;23.00;101186.00;;;;5037939;28;20229;-64
2023/08/13 09:59:38;;;;;;;5.57;2.20;;;;;23.10;101195.00;;;;5033421;28;20228;-67
2023/08/13 10:02:28;;;;;;;4.33;2.10;;;;;23.00;101200.00;;;;5034511;28;20233;-67
2023/08/13 10:05:16;;;;;;;6.73;2.10;;;;;23.10;101193.00;;;;5031615;28;20241;-66
2023/08/13 10:08:02;;;;;;;4.13;2.20;;;;;23.20;101196.00;;;;5032435;28;20597;-67
2023/08/13 10:10:49;;;;;;;8.13;2.30;;;;;23.30;101190.00;;;;5033707;28;20237;-67
2023/08/13 10:13:36;;;;;;;5.43;2.10;;;;;23.20;101184.00;;;;5041029;28;20224;-67
2023/08/13 10:16:24;;;;;;;6.87;2.30;;;;;23.20;101183.00;;;;5022033;28;20292;-67
2023/08/13 10:19:12;;;;;;;6.57;2.33;;;;;23.40;101193.00;;;;5023722;28;20714;-66
2023/08/13 10:21:59;;;;;;;5.27;2.00;;;;;23.40;101186.00;;;;5025303;28;20735;-67
2023/08/13 10:24:49;;;;;;;5.23;1.97;;;;;23.40;101188.00;;;;5025008;28;20820;-68
2023/08/13 10:27:37;;;;;;;5.50;2.00;;;;;23.50;101184.00;;;;5023188;28;20237;-66
2023/08/13 10:30:24;;;;;;;7.07;2.23;;;;;23.70;101189.00;;;;5023405;28;20702;-66
2023/08/13 10:33:14;;;;;;;3.90;1.80;;;;;23.60;101185.00;;;;5018532;28;20368;-67
2023/08/13 10:36:09;;;;;;;6.63;1.93;;;;;23.90;101186.00;;;;5021987;28;20237;-67
2023/08/13 10:38:56;;;;;;;5.50;1.97;;;;;24.10;101187.00;;;;5023441;28;20272;-67
2023/08/13 10:41:43;;;;;;;4.67;1.83;;;;;24.20;101181.00;;;;5012562;28;20229;-67
2023/08/13 10:44:30;;;;;;;11.37;2.10;;;;;24.20;101174.00;;;;5024850;28;20241;-67
2023/08/13 10:47:17;;;;;;;6.73;1.83;;;;;24.40;101169.00;;;;5022271;28;20678;-67
2023/08/13 10:50:05;;;;;;;4.53;1.95;;;;;24.60;101168.00;;;;5022044;28;20307;-67
2023/08/13 10:52:54;;;;;;;6.45;1.80;;;;;24.60;101170.00;;;;5025496;28;20233;-67
2023/08/13 10:55:41;;;;;;;6.13;1.90;;;;;24.70;101175.00;;;;5020399;28;20241;-67
2023/08/13 10:58:29;;;;;;;5.22;1.80;;;;;25.00;101171.00;;;;5024529;28;20253;-64
2023/08/13 11:01:19;;;;;;;3.15;1.67;;;;;25.20;101168.00;;;;5017363;28;20273;-64
2023/08/13 11:04:06;;;;;;;4.78;1.75;;;;;25.20;101163.00;;;;5024351;28;20228;-66
2023/08/13 11:06:52;;;;;;;8.25;2.05;;;;;25.30;101159.00;;;;5013387;28;20226;-66
2023/08/13 11:09:42;;;;;;;4.95;1.95;;;;;25.20;101157.00;;;;5035025;28;20306;-66
2023/08/13 11:12:29;;;;;;;5.10;2.03;;;;;25.20;101162.00;;;;5022326;28;20230;-67
2023/08/13 11:15:16;;;;;;;9.05;2.70;;;;;25.20;101160.00;;;;5029538;28;20279;-67
2023/08/13 11:18:03;;;;;;;4.65;1.70;;;;;25.10;101164.00;;;;5016716;28;20280;-67
2023/08/13 11:20:51;;;;;;;6.40;2.20;;;;;24.90;101163.00;;;;5026338;28;20243;-66
2023/08/13 11:23:38;;;;;;;4.80;1.85;;;;;24.60;101161.00;;;;5020117;28;20237;-64
2023/08/13 11:26:25;;;;;;;3.50;1.92;;;;;24.50;101169.00;;;;5022437;28;20886;-67
2023/08/13 11:29:12;;;;;;;6.30;1.70;;;;;24.40;101156.00;;;;5017408;28;20233;-67
2023/08/13 11:31:59;;;;;;;4.30;1.90;;;;;24.40;101161.00;;;;5038607;28;20245;-68
2023/08/13 11:34:45;;;;;;;5.70;1.80;;;;;24.40;101164.00;;;;5039885;28;20607;-67
2023/08/13 11:37:32;;;;;;;3.15;1.77;;;;;24.30;101163.00;;;;5036532;28;20223;-67
2023/08/13 11:40:18;;;;;;;5.38;1.77;;;;;24.40;101157.00;;;;5020660;28;20229;-69
2023/08/13 11:43:10;;;;;;;4.32;1.70;;;;;24.40;101151.00;;;;5021736;28;20253;-66
2023/08/13 11:45:56;;;;;;;5.95;2.15;;;;;24.50;101162.00;;;;5023293;28;20233;-67
2023/08/13 11:48:43;;;;;;;6.97;1.77;;;;;24.40;101156.00;;;;5024354;28;20738;-67
2023/08/13 11:51:30;;;;;;;4.50;1.90;;;;;24.30;101154.00;;;;5030085;28;20229;-68
2023/08/13 11:54:18;;;;;;;7.37;2.03;;;;;24.30;101157.00;;;;5026534;28;20237;-68
2023/08/13 11:57:05;;;;;;;7.40;2.10;;;;;24.40;101151.00;;;;5029100;28;20236;-67
2023/08/13 11:59:53;;;;;;;4.23;1.90;;;;;24.60;101150.00;;;;5039875;28;20240;-68
2023/08/13 12:02:39;;;;;;;5.37;1.90;;;;;24.80;101149.00;;;;5032931;28;20610;-68
2023/08/13 12:05:27;;;;;;;7.68;2.30;;;;;25.00;101148.00;;;;5025646;28;20233;-69
2023/08/13 12:08:14;;;;;;;6.95;2.25;;;;;25.30;101142.00;;;;5030141;28;20225;-68
2023/08/13 12:11:00;;;;;;;5.43;1.95;;;;;25.60;101146.00;;;;5025104;28;20636;-68
2023/08/13 12:13:47;;;;;;;6.15;2.20;;;;;25.70;101146.00;;;;5026214;28;20640;-69
2023/08/13 12:16:35;;;;;;;3.95;2.10;;;;;25.50;101161.00;;;;5020269;28;20296;-69
2023/08/13 12:19:22;;;;;;;6.72;2.08;;;;;25.20;101140.00;;;;5023509;28;20308;-69
2023/08/13 12:22:08;;;;;;;4.80;2.22;;;;;25.10;101146.00;;;;5025271;28;20233;-69
2023/08/13 12:24:55;;;;;;;5.25;1.90;;;;;25.30;101147.00;;;;5025055;28;20253;-69
2023/08/13 12:27:42;;;;;;;7.20;2.10;;;;;25.50;101141.00;;;;5034867;28;20225;-69
2023/08/13 12:30:29;;;;;;;6.45;2.10;;;;;25.50;101141.00;;;;5035824;28;20233;-69
2023/08/13 12:33:17;;;;;;;7.00;2.05;;;;;25.30;101138.00;;;;5019421;28;20225;-68
2023/08/13 12:36:04;;;;;;;4.13;2.00;;;;;25.00;101141.00;;;;5028316;28;20236;-68
2023/08/13 12:38:50;;;;;;;3.35;1.98;;;;;24.90;101140.00;;;;5022938;28;20380;-68
2023/08/13 12:41:37;;;;;;;5.47;1.90;;;;;25.20;101135.00;;;;5019176;28;20602;-68
2023/08/13 12:44:26;;;;;;;5.63;2.20;;;;;25.70;101138.00;;;;5020031;28;20375;-67
2023/08/13 12:47:13;;;;;;;3.42;1.90;;;;;25.50;101126.00;;;;5022238;28;20245;-67
2023/08/13 12:50:01;;;;;;;4.10;2.10;;;;;25.60;101122.00;;;;5025264;28;20287;-67
2023/08/13 12:52:47;;;;;;;4.50;2.00;;;;;25.70;101133.00;;;;5023567;28;20229;-68
2023/08/13 12:55:33;;;;;;;6.43;1.90;;;;;25.90;101132.00;;;;5024391;28;20288;-67
2023/08/13 12:58:20;;;;;;;4.72;2.28;;;;;26.30;101126.00;;;;5023232;28;20307;-67
2023/08/13 13:01:06;;;;;;;8.98;2.22;;;;;26.40;101128.00;;;;5020600;28;20319;-67
2023/08/13 13:03:52;;;;;;;4.75;1.92;;;;;26.40;101125.00;;;;5019827;28;20327;-67
2023/08/13 13:06:41;;;;;;;5.18;1.95;;;;;26.30;101122.00;;;;5030996;28;20288;-68
2023/08/13 13:09:27;;;;;;;6.03;2.03;;;;;26.10;101125.00;;;;5028383;28;20305;-67
2023/08/13 13:12:14;;;;;;;5.32;2.28;;;;;25.80;101120.00;;;;5038343;28;20711;-67
2023/08/13 13:15:01;;;;;;;5.78;2.17;;;;;25.70;101122.00;;;;5034701;28;20229;-67
2023/08/13 13:17:48;;;;;;;5.70;2.38;;;;;25.50;101123.00;;;;5017485;28;20368;-68
2023/08/13 13:20:34;;;;;;;5.28;2.00;;;;;25.40;101133.00;;;;5018853;28;20319;-67
2023/08/13 13:23:22;;;;;;;5.65;2.17;;;;;25.50;101128.00;;;;5020908;28;20750;-67
2023/08/13 13:26:09;;;;;;;5.90;2.38;;;;;25.40;101131.00;;;;5032904;28;20248;-68
2023/08/13 13:28:56;;;;;;;5.13;2.33;;;;;25.30;101126.00;;;;5024732;28;20971;-68
2023/08/13 13:31:42;;;;;;;7.68;2.83;;;;;25.10;101122.00;;;;5016152;28;20276;-67
2023/08/13 13:34:28;;;;;;;7.10;2.20;;;;;25.00;101128.00;;;;5023908;28;20236;-67
2023/08/13 13:37:15;;;;;;;6.05;2.70;;;;;24.80;101138.00;;;;5020855;28;20364;-68
2023/08/13 13:40:03;;;;;;;10.05;2.50;;;;;24.60;101140.00;;;;5024817;28;20268;-68
2023/08/13 13:42:50;;;;;;;7.60;2.30;;;;;24.50;101134.00;;;;5027722;28;20233;-68
2023/08/13 13:45:38;;;;;;;5.63;2.53;;;;;24.40;101138.00;;;;5027437;28;20230;-68